createdAt,value
2019-05-07T00:08:32.299Z,2.20
2019-05-07T00:18:35.389Z,2.06
2019-05-07T00:28:38.339Z,1.70
2019-05-07T00:38:44.160Z,1.33
2019-05-07T00:48:47.152Z,0.95
2019-05-07T00:58:52.517Z,0.61
2019-05-07T01:08:55.004Z,-0.01
2019-05-07T01:18:57.976Z,-0.24
2019-05-07T01:29:02.967Z,-0.47
2019-05-07T01:39:06.570Z,-0.78
2019-05-07T01:49:09.628Z,-0.95
2019-05-07T01:59:12.610Z,-1.14
2019-05-07T02:09:28.709Z,-1.28
2019-05-07T02:19:32.950Z,-1.43
2019-05-07T02:29:38.178Z,-1.50
2019-05-07T02:39:49.621Z,-1.52
2019-05-07T02:49:57.266Z,-1.61
2019-05-07T03:00:04.052Z,-1.52
2019-05-07T03:10:05.984Z,-1.67
2019-05-07T03:20:14.016Z,-1.80
2019-05-07T03:30:45.598Z,-1.89
2019-05-07T03:40:47.893Z,-2.02
2019-05-07T03:50:52.803Z,-2.15
2019-05-07T04:00:55.731Z,-0.57
2019-05-07T04:10:58.684Z,-1.21
2019-05-07T04:21:03.707Z,-1.23
2019-05-07T04:31:06.594Z,0.44
2019-05-07T04:41:09.649Z,1.10
2019-05-07T04:51:15.048Z,0.81
2019-05-07T05:01:19.946Z,0.78
2019-05-07T05:11:23.714Z,1.93
2019-05-07T05:21:59.077Z,2.60
2019-05-07T05:32:02.403Z,2.67
2019-05-07T05:42:14.670Z,4.08
2019-05-07T05:52:32.846Z,3.56
2019-05-07T06:02:54.747Z,9.98
2019-05-07T06:13:09.879Z,15.75
2019-05-07T06:23:27.985Z,16.42
2019-05-07T06:33:32.415Z,20.65
2019-05-07T06:43:43.357Z,24.31
2019-05-07T06:53:46.328Z,26.88
2019-05-07T07:04:17.991Z,29.16
2019-05-07T07:14:22.742Z,28.13
2019-05-07T07:24:25.865Z,28.63
2019-05-07T07:34:33.293Z,28.02
2019-05-07T07:44:36.325Z,28.89
2019-05-07T07:54:39.310Z,28.54
2019-05-07T08:04:42.656Z,29.38
2019-05-07T08:14:45.778Z,28.15
2019-05-07T08:24:48.769Z,25.36
2019-05-07T08:35:03.449Z,18.82
2019-05-07T08:45:25.050Z,15.55
2019-05-07T08:55:28.185Z,19.95
2019-05-07T09:05:32.370Z,20.48
2019-05-07T09:15:35.688Z,25.63
2019-05-07T09:25:47.382Z,20.08
2019-05-07T09:35:52.843Z,17.25
2019-05-07T09:45:56.085Z,19.60
2019-05-07T09:55:59.079Z,15.74
2019-05-07T10:06:03.413Z,16.26
2019-05-07T10:16:07.746Z,15.55
2019-05-07T10:26:12.178Z,19.51
2019-05-07T10:36:15.470Z,24.03
2019-05-07T10:46:37.691Z,24.12
2019-05-07T10:56:41.905Z,18.82
2019-05-07T11:06:45.173Z,20.76
2019-05-07T11:17:07.727Z,20.68
2019-05-07T11:27:11.886Z,22.63
2019-05-07T11:37:15.080Z,21.60
2019-05-07T11:47:24.653Z,25.46
2019-05-07T11:57:27.644Z,24.08
2019-05-07T12:07:32.616Z,23.66
2019-05-07T12:17:35.646Z,22.68
2019-05-07T12:27:39.166Z,21.31
2019-05-07T12:37:42.825Z,17.19
2019-05-07T12:47:47.134Z,17.65
2019-05-07T12:57:51.874Z,15.40
2019-05-07T13:07:55.044Z,15.11
2019-05-07T13:17:57.996Z,14.61
2019-05-07T13:28:02.677Z,14.20
2019-05-07T13:38:24.140Z,14.05
2019-05-07T13:48:27.295Z,14.23
2019-05-07T13:58:32.745Z,14.43
2019-05-07T14:08:38.010Z,13.99
2019-05-07T14:18:41.002Z,14.02
2019-05-07T14:28:43.971Z,13.69
2019-05-07T14:38:48.461Z,13.40
2019-05-07T14:48:52.080Z,14.01
2019-05-07T14:58:55.735Z,13.90
2019-05-07T15:08:58.831Z,13.40
2019-05-07T15:19:02.558Z,13.38
2019-05-07T15:29:13.368Z,13.80
2019-05-07T15:39:16.401Z,15.28
2019-05-07T15:49:21.545Z,15.46
2019-05-07T15:59:24.543Z,14.36
2019-05-07T16:09:42.642Z,14.30
2019-05-07T16:19:47.583Z,15.30
2019-05-07T16:29:52.507Z,14.71
2019-05-07T16:39:55.487Z,14.09
2019-05-07T16:49:59.260Z,13.72
2019-05-07T17:00:03.228Z,14.21
2019-05-07T17:10:06.660Z,13.41
2019-05-07T17:20:12.688Z,12.62
2019-05-07T17:30:16.041Z,13.20
2019-05-07T17:40:19.109Z,13.41
2019-05-07T17:50:26.953Z,12.35
2019-05-07T18:00:30.082Z,12.57
2019-05-07T18:10:35.206Z,11.96
2019-05-07T18:20:38.427Z,11.57
2019-05-07T18:30:41.560Z,11.16
2019-05-07T18:40:44.594Z,10.69
2019-05-07T18:50:47.587Z,10.17
2019-05-07T19:00:54.286Z,9.58
2019-05-07T19:10:57.681Z,9.19
2019-05-07T19:21:00.788Z,8.99
2019-05-07T19:31:05.111Z,8.77
2019-05-07T19:41:12.119Z,8.53
2019-05-07T19:51:14.988Z,8.70
2019-05-07T20:01:22.829Z,8.43
2019-05-07T20:11:37.406Z,8.59
2019-05-07T20:21:40.478Z,8.37
2019-05-07T20:31:43.508Z,8.22
2019-05-07T20:41:46.515Z,8.40
2019-05-07T20:51:49.539Z,7.98
2019-05-07T21:01:52.771Z,8.05
2019-05-07T21:11:55.832Z,7.85
2019-05-07T21:21:58.832Z,8.26
2019-05-07T21:32:03.261Z,7.75
2019-05-07T21:42:06.573Z,7.22
2019-05-07T21:52:09.514Z,7.12
2019-05-07T22:02:18.278Z,6.94
2019-05-07T22:12:22.580Z,6.81
2019-05-07T22:22:25.726Z,6.80
2019-05-07T22:32:36.734Z,7.04
2019-05-07T22:42:39.744Z,6.77
2019-05-07T22:52:42.805Z,6.67
2019-05-07T23:02:45.799Z,6.49
2019-05-07T23:12:48.771Z,6.44
2019-05-07T23:22:52.077Z,5.96
2019-05-07T23:32:55.179Z,6.29
2019-05-07T23:43:02.897Z,6.64
2019-05-07T23:53:05.797Z,7.04
